Date,TemperatureHighF,TemperatureAvgF,TemperatureLowF,DewpointHighF,DewpointAvgF,DewpointLowF,HumidityHigh,HumidityAvg,HumidityLow,PressureMaxIn,PressureMinIn,WindSpeedMaxMPH,WindSpeedAvgMPH,GustSpeedMaxMPH,PrecipitationSumIn
2013-11-1,62.7,57.3,48.3,59.0,49.7,42.0,94,77,56,29.65,29.18,29,11,42,0.30
2013-11-2,50.6,45.0,37.1,46.0,42.7,35.0,95,91,82,29.96,29.58,9,3,13,0.38
2013-11-3,37.1,33.7,26.2,35.0,26.7,23.0,94,76,60,30.53,29.97,7,2,11,0.00
2013-11-4,41.6,32.4,20.2,29.0,21.2,17.0,96,67,39,30.66,30.46,8,1,10,0.00
2013-11-5,55.4,45.0,33.8,35.0,28.9,21.0,65,54,45,30.48,30.32,6,2,9,0.00
2013-11-6,62.6,54.3,44.8,53.0,44.4,36.0,85,70,56,30.33,29.78,11,3,16,0.02
2013-11-7,57.6,43.9,37.2,54.0,38.5,31.0,94,81,64,29.96,29.76,16,6,19,0.40
2013-11-8,40.9,37.5,34.0,34.0,30.0,26.0,92,75,57,30.21,29.92,18,7,24,0.04
2013-11-9,50.8,41.1,32.4,41.0,31.6,28.0,86,70,55,30.20,29.76,9,3,21,0.00
2013-11-10,50.7,43.4,39.5,42.0,36.1,30.0,92,76,65,30.11,29.75,25,10,41,0.06
2013-11-11,45.6,37.3,28.8,37.0,31.7,27.0,96,81,56,30.14,29.90,21,6,28,0.14
2013-11-12,31.6,27.6,25.0,28.0,22.7,19.0,95,82,69,30.37,30.08,16,6,22,0.00
2013-11-13,37.3,29.7,20.0,26.0,19.9,14.0,77,68,52,30.42,30.08,19,7,24,0.00
2013-11-14,51.8,42.1,33.5,28.0,18.9,11.0,61,42,22,30.11,30.00,22,9,26,0.00
2013-11-15,52.1,45.9,40.6,29.0,21.2,17.0,52,38,31,30.11,30.03,12,3,15,0.00
2013-11-16,58.6,48.6,36.7,40.0,32.9,23.0,72,56,41,30.24,30.05,6,2,11,0.00
2013-11-17,59.3,54.2,49.6,54.0,49.2,41.0,93,83,71,30.05,29.36,29,4,29,0.16
2013-11-18,54.8,47.0,36.1,49.0,36.1,27.0,87,66,55,29.86,29.34,38,16,40,0.04
2013-11-19,36.9,34.2,26.3,29.0,26.3,23.0,90,73,61,30.44,29.86,18,6,29,0.00
2013-11-20,37.1,28.8,21.0,22.0,19.7,16.0,92,70,47,30.61,30.44,5,1,9,0.00
2013-11-21,45.0,37.9,28.8,37.0,24.9,15.0,89,60,47,30.49,30.26,7,2,15,0.01
2013-11-22,47.9,41.5,32.9,46.0,39.7,28.0,97,93,81,30.25,29.96,18,4,27,0.29
2013-11-23,35.9,27.9,18.1,28.0,21.4,9.0,93,77,51,30.16,29.97,24,10,36,0.00
2013-11-24,23.4,19.2,15.8,17.0,13.6,9.0,92,79,60,30.40,30.14,16,8,27,0.00
2013-11-25,34.1,27.3,16.7,19.0,13.5,6.0,84,59,31,30.40,30.11,12,4,17,0.00
2013-11-26,36.4,33.2,31.7,31.0,27.7,20.0,97,81,59,30.15,29.82,11,3,19,0.00
2013-11-27,33.5,30.0,22.4,32.0,27.6,17.0,98,90,75,29.86,29.57,14,0,21,0.00
2013-11-28,27.8,22.2,18.1,19.0,15.3,13.0,89,75,59,30.43,29.87,14,5,23,0.00
2013-11-29,27.3,19.0,4.9,21.0,14.0,3.0,94,82,59,30.75,30.43,9,1,11,0.00
2013-11-30,31.0,20.5,2.9,22.0,14.2,0.0,94,77,60,30.74,30.22,9,2,13,0.00